Time;durP1;ratioP1;P1;durP2;ratioP2;P2;SDS_P1;SDS_P2;PMS_P1;PMS_P2;Temp;Humidity;BMP_temperature;BMP_pressure;BME280_temperature;BME280_humidity;BME280_pressure;Samples;Min_cycle;Max_cycle;Signal;HPM_P1;HPM_P2
2021/09/05 00:01:14;;;;;;;;;21.50;20.25;;;;;24.39;53.47;101132.03;5075683;28;53576;-48
2021/09/05 00:03:39;;;;;;;;;21.75;20.25;;;;;24.38;53.58;101120.59;5076383;27;45348;-44
2021/09/05 00:06:05;;;;;;;;;20.75;19.75;;;;;24.37;53.99;101118.88;5076681;28;45300;-49
2021/09/05 00:08:30;;;;;;;;;19.00;19.00;;;;;24.38;53.59;101117.06;5076883;28;45602;-48
2021/09/05 00:10:55;;;;;;;;;22.75;20.50;;;;;24.36;53.88;101111.91;5076242;28;46188;-45
2021/09/05 00:13:21;;;;;;;;;21.00;19.50;;;;;24.37;53.68;101108.28;5076085;27;45336;-44
2021/09/05 00:15:46;;;;;;;;;19.75;17.00;;;;;24.38;54.10;101117.06;5076380;28;45450;-44
2021/09/05 00:18:12;;;;;;;;;20.75;20.75;;;;;24.37;53.49;101110.94;5076718;28;45384;-45
2021/09/05 00:20:37;;;;;;;;;19.75;18.00;;;;;24.38;54.00;101117.06;5076166;28;45375;-47
2021/09/05 00:23:03;;;;;;;;;23.75;20.00;;;;;24.37;53.74;101110.06;5076470;28;45328;-56
2021/09/05 00:25:32;;;;;;;;;17.50;16.75;;;;;24.36;53.98;101117.19;5076403;28;45289;-45
2021/09/05 00:27:59;;;;;;;;;23.75;21.25;;;;;24.36;53.81;101119.84;5076383;27;45530;-47
2021/09/05 00:30:24;;;;;;;;;19.75;16.50;;;;;24.37;53.73;101134.78;5076045;28;46246;-50
2021/09/05 00:32:49;;;;;;;;;20.25;17.50;;;;;24.35;53.56;101126.09;5076129;28;45352;-45
2021/09/05 00:35:15;;;;;;;;;19.50;18.25;;;;;24.36;53.81;101127.78;5076235;28;45350;-48
2021/09/05 00:37:41;;;;;;;;;16.50;16.50;;;;;24.37;54.12;101129.50;5076571;28;45452;-51
2021/09/05 00:40:07;;;;;;;;;18.75;17.25;;;;;24.36;53.74;101133.09;5076001;28;46614;-48
2021/09/05 00:42:33;;;;;;;;;22.75;18.50;;;;;24.36;54.13;101127.78;5076201;28;45800;-47
2021/09/05 00:44:58;;;;;;;;;17.50;16.50;;;;;24.36;53.86;101133.09;5076224;28;45247;-47
2021/09/05 00:47:23;;;;;;;;;18.25;18.00;;;;;24.36;54.08;101134.91;5058126;28;45284;-48
2021/09/05 00:49:48;;;;;;;;;20.50;19.00;;;;;24.36;53.87;101129.59;5075803;27;46479;-49
2021/09/05 00:52:15;;;;;;;;;19.00;17.75;;;;;24.35;54.02;101136.69;5075797;28;45274;-51
2021/09/05 00:54:42;;;;;;;;;19.75;19.75;;;;;24.35;53.55;101136.69;5075995;27;45281;-47
2021/09/05 00:57:12;;;;;;;;;16.25;16.25;;;;;24.34;53.74;101124.38;5076080;28;45538;-44
2021/09/05 00:59:40;;;;;;;;;19.75;19.25;;;;;24.35;53.46;101123.44;5075549;28;46360;-44
2021/09/05 01:02:05;;;;;;;;;18.25;18.25;;;;;24.35;54.20;101125.25;5076007;28;45273;-48
2021/09/05 01:04:30;;;;;;;;;23.00;19.00;;;;;24.35;54.03;101120.78;5075875;28;45312;-47
2021/09/05 01:06:56;;;;;;;;;19.00;19.00;;;;;24.35;54.20;101125.25;5057805;28;45940;-44
2021/09/05 01:09:21;;;;;;;;;18.00;18.00;;;;;24.34;54.13;101119.09;5075489;28;46513;-45
2021/09/05 01:11:47;;;;;;;;;19.25;17.25;;;;;24.34;53.82;101126.19;5075507;28;45238;-45
2021/09/05 01:14:12;;;;;;;;;17.75;17.75;;;;;24.35;54.22;101130.56;5078525;27;45391;-47
2021/09/05 01:16:41;;;;;;;;;19.00;19.00;;;;;24.34;54.20;101127.03;5079237;27;45301;-47
2021/09/05 01:19:11;;;;;;;;;19.25;17.75;;;;;24.35;53.82;101126.09;5079044;28;46203;-47
2021/09/05 01:21:37;;;;;;;;;19.50;19.50;;;;;24.33;54.19;101114.75;5079391;27;45825;-46
2021/09/05 01:24:05;;;;;;;;;19.25;18.75;;;;;24.34;54.13;101112.94;5079383;27;45381;-45
2021/09/05 01:26:31;;;;;;;;;21.00;19.75;;;;;24.34;54.21;101118.25;5079108;28;45612;-46
2021/09/05 01:28:57;;;;;;;;;20.00;20.00;;;;;24.35;54.02;101119.94;5078849;28;46532;-46
2021/09/05 01:31:23;;;;;;;;;17.00;16.50;;;;;24.34;53.70;101119.09;5078867;28;45963;-47
2021/09/05 01:33:49;;;;;;;;;21.00;17.00;;;;;24.34;53.56;101127.03;5078954;28;45241;-45
2021/09/05 01:36:18;;;;;;;;;20.50;18.25;;;;;24.34;54.01;101128.84;5079120;27;45238;-45
2021/09/05 01:38:44;;;;;;;;;20.75;19.25;;;;;24.34;53.81;101134.16;5078467;28;45496;-47
2021/09/05 01:41:10;;;;;;;;;18.00;18.00;;;;;24.34;53.99;101140.28;5079013;27;45379;-49
2021/09/05 01:43:36;;;;;;;;;19.00;17.00;;;;;24.34;53.75;101144.75;5079016;27;45447;-47
2021/09/05 01:46:02;;;;;;;;;19.50;19.50;;;;;24.34;53.84;101140.28;5078906;27;45540;-44
2021/09/05 01:48:27;;;;;;;;;20.25;19.00;;;;;24.35;54.22;101146.44;5078624;27;46297;-45
2021/09/05 01:50:53;;;;;;;;;16.75;14.50;;;;;24.34;54.04;101148.22;5078485;28;50178;-44
2021/09/05 01:53:18;;;;;;;;;19.00;17.00;;;;;24.34;54.19;101142.09;5078665;27;45364;-51
2021/09/05 01:55:43;;;;;;;;;18.25;16.00;;;;;24.34;53.77;101142.09;5078957;28;45564;-45
2021/09/05 01:58:09;;;;;;;;;23.50;22.25;;;;;24.33;53.88;101140.38;5078442;28;45489;-46
2021/09/05 02:00:35;;;;;;;;;18.25;16.75;;;;;24.33;54.28;101138.56;5078485;28;45439;-50
2021/09/05 02:03:00;;;;;;;;;17.75;16.50;;;;;24.33;53.80;101145.69;5078498;27;45345;-44
2021/09/05 02:05:26;;;;;;;;;22.50;21.75;;;;;24.33;54.41;101149.16;5078742;28;45457;-44
2021/09/05 02:07:51;;;;;;;;;18.75;16.25;;;;;24.32;54.41;101150.13;5078101;28;45258;-45
2021/09/05 02:10:16;;;;;;;;;23.75;23.00;;;;;24.33;54.02;101143.03;5078333;28;45239;-43
2021/09/05 02:12:42;;;;;;;;;20.00;19.75;;;;;24.32;54.27;101144.81;5078137;28;45248;-51
2021/09/05 02:15:08;;;;;;;;;20.00;18.00;;;;;24.31;54.15;101140.47;5078709;28;45454;-47
2021/09/05 02:17:33;;;;;;;;;18.50;16.50;;;;;24.30;54.24;101144.09;5078148;28;46664;-45
2021/09/05 02:19:59;;;;;;;;;20.50;19.00;;;;;24.33;54.13;101143.88;5078187;28;45411;-46
2021/09/05 02:22:24;;;;;;;;;18.75;17.25;;;;;24.32;53.92;101136.88;5078151;28;45925;-45
2021/09/05 02:24:49;;;;;;;;;17.75;17.75;;;;;24.32;53.91;101142.19;5078205;27;45835;-44
2021/09/05 02:27:16;;;;;;;;;18.00;17.00;;;;;24.30;54.37;101133.50;5077927;28;45777;-45
2021/09/05 02:29:41;;;;;;;;;19.75;16.25;;;;;24.33;54.39;101143.88;5077947;28;45386;-44
2021/09/05 02:32:06;;;;;;;;;21.50;19.75;;;;;24.32;54.21;101139.53;5078260;27;45388;-44
2021/09/05 02:34:32;;;;;;;;;18.00;18.00;;;;;24.30;54.38;101133.50;5078134;28;45504;-47
2021/09/05 02:36:57;;;;;;;;;19.50;17.75;;;;;24.32;54.31;101142.19;5077554;28;46349;-46
2021/09/05 02:39:23;;;;;;;;;18.50;18.50;;;;;24.32;53.88;101133.41;5077696;28;45408;-45
2021/09/05 02:41:48;;;;;;;;;19.00;17.00;;;;;24.31;53.72;101145.78;5077784;28;45440;-45
2021/09/05 02:44:13;;;;;;;;;20.00;18.00;;;;;24.32;54.25;101142.19;5077970;27;45307;-44
2021/09/05 02:46:39;;;;;;;;;19.75;16.50;;;;;24.32;53.85;101139.53;5077929;28;45259;-45
2021/09/05 02:49:04;;;;;;;;;16.25;15.50;;;;;24.32;53.83;101141.34;5077682;28;45403;-49
2021/09/05 02:51:29;;;;;;;;;18.75;17.25;;;;;24.32;53.79;101142.19;5077768;27;45382;-44
2021/09/05 02:53:55;;;;;;;;;16.75;16.75;;;;;24.31;54.15;101139.63;5077694;28;45640;-44
2021/09/05 02:56:20;;;;;;;;;17.50;16.75;;;;;24.31;54.01;101143.13;5059262;28;47392;-46
2021/09/05 02:58:45;;;;;;;;;19.25;17.50;;;;;24.32;53.88;101144.81;5075985;27;45381;-44
2021/09/05 03:01:11;;;;;;;;;21.00;18.25;;;;;24.32;53.85;101147.47;5077982;27;45317;-45
2021/09/05 03:03:36;;;;;;;;;19.75;18.50;;;;;24.32;53.87;101147.47;5077649;28;45220;-44
2021/09/05 03:06:01;;;;;;;;;19.00;18.00;;;;;24.32;54.27;101141.34;5077497;28;45704;-47
2021/09/05 03:08:27;;;;;;;;;18.00;17.75;;;;;24.31;54.35;101143.13;5077488;28;45371;-44
2021/09/05 03:10:52;;;;;;;;;16.25;16.25;;;;;24.32;53.90;101142.19;5077338;27;45347;-47
2021/09/05 03:13:17;;;;;;;;;16.50;16.50;;;;;24.32;54.42;101144.00;5077411;28;45389;-50
2021/09/05 03:15:43;;;;;;;;;18.50;17.00;;;;;24.29;54.40;101139.75;5077217;28;45344;-46
2021/09/05 03:18:09;;;;;;;;;18.25;17.00;;;;;24.32;53.86;101146.63;5077734;28;45391;-45
2021/09/05 03:20:35;;;;;;;;;17.00;17.00;;;;;24.31;54.36;101143.13;5058956;28;45422;-47
2021/09/05 03:23:00;;;;;;;;;18.25;16.75;;;;;24.31;54.55;101145.78;5077409;27;45324;-46
2021/09/05 03:25:25;;;;;;;;;18.75;17.00;;;;;24.32;53.85;101144.00;5077140;28;45619;-44
2021/09/05 03:27:51;;;;;;;;;18.00;16.00;;;;;24.30;54.32;101138.81;5077067;28;45307;-46
2021/09/05 03:30:16;;;;;;;;;20.00;18.50;;;;;24.29;54.06;101147.69;5077082;28;45434;-48
2021/09/05 03:32:42;;;;;;;;;17.50;16.50;;;;;24.30;53.88;101138.81;5077504;28;45405;-51
2021/09/05 03:35:08;;;;;;;;;16.25;16.25;;;;;24.31;54.53;101144.94;5076450;28;46483;-48
2021/09/05 03:37:34;;;;;;;;;15.00;15.00;;;;;24.31;54.25;101145.78;5076801;28;45933;-52
2021/09/05 03:39:59;;;;;;;;;23.50;18.50;;;;;24.31;53.90;101137.00;5076964;28;45253;-50
2021/09/05 03:42:24;;;;;;;;;21.00;18.50;;;;;24.30;54.49;101136.16;5077104;27;45633;-45
2021/09/05 03:44:50;;;;;;;;;17.25;17.25;;;;;24.28;54.16;101130.09;5076689;27;46271;-51
2021/09/05 03:47:15;;;;;;;;;16.75;16.00;;;;;24.29;54.56;101134.47;5076693;28;45422;-53
2021/09/05 03:49:40;;;;;;;;;16.50;14.50;;;;;24.29;54.45;101130.94;5077391;27;45300;-54
2021/09/05 03:52:06;;;;;;;;;17.50;14.50;;;;;24.30;54.35;101133.50;5076412;27;47075;-46
2021/09/05 03:54:31;;;;;;;;;15.75;15.00;;;;;24.29;53.98;101137.09;5076446;28;45531;-48
2021/09/05 03:56:56;;;;;;;;;18.00;14.50;;;;;24.27;54.41;101128.41;5076658;28;45269;-45
2021/09/05 03:59:22;;;;;;;;;17.75;15.75;;;;;24.30;54.34;101130.84;5076601;28;45388;-45
2021/09/05 04:01:47;;;;;;;;;18.25;17.00;;;;;24.29;54.49;101131.81;5076907;28;45291;-44
2021/09/05 04:04:12;;;;;;;;;16.25;16.25;;;;;24.30;54.03;101136.16;5076910;28;45276;-45
2021/09/05 04:06:38;;;;;;;;;16.00;16.00;;;;;24.30;54.36;101136.16;5076618;27;45276;-48
2021/09/05 04:09:10;;;;;;;;;17.25;16.00;;;;;24.28;54.37;101134.53;5076842;28;45287;-44
2021/09/05 04:11:36;;;;;;;;;17.00;15.50;;;;;24.29;54.52;101137.09;5076722;28;45445;-45
2021/09/05 04:14:02;;;;;;;;;17.25;14.75;;;;;24.28;53.72;101135.41;5076532;28;45364;-45
2021/09/05 04:16:28;;;;;;;;;17.50;17.00;;;;;24.29;54.00;101137.09;5076338;28;45781;-44
2021/09/05 04:18:53;;;;;;;;;18.00;16.00;;;;;24.29;53.92;101145.06;5076415;28;45311;-44
2021/09/05 04:21:18;;;;;;;;;20.00;19.00;;;;;24.29;54.36;101139.75;5076684;28;45608;-44
2021/09/05 04:23:44;;;;;;;;;19.75;16.25;;;;;24.29;54.22;101145.06;5076497;28;45315;-44
2021/09/05 04:26:09;;;;;;;;;15.50;15.00;;;;;24.29;54.39;101142.41;5076273;28;45367;-49
2021/09/05 04:28:34;;;;;;;;;20.25;16.75;;;;;24.30;54.10;101146.75;5076510;28;45343;-44
2021/09/05 04:31:00;;;;;;;;;17.75;15.00;;;;;24.30;54.13;101153.84;5076615;27;45636;-44
2021/09/05 04:33:26;;;;;;;;;17.00;15.25;;;;;24.29;54.23;101145.06;5076050;28;46571;-44
2021/09/05 04:35:51;;;;;;;;;17.00;16.00;;;;;24.29;54.04;101145.06;5057993;27;45329;-46
2021/09/05 04:38:16;;;;;;;;;16.00;14.25;;;;;24.29;53.91;101147.69;5076143;28;45420;-46
2021/09/05 04:40:42;;;;;;;;;15.00;15.00;;;;;24.29;54.05;101153.00;5076896;28;45277;-47
2021/09/05 04:43:07;;;;;;;;;17.75;17.75;;;;;24.30;54.21;101154.69;5075948;28;46181;-48
2021/09/05 04:45:33;;;;;;;;;17.50;15.75;;;;;24.27;53.79;101152.25;5075751;28;45311;-44
2021/09/05 04:47:58;;;;;;;;;21.75;17.50;;;;;24.28;53.66;101164.53;5077400;27;45473;-50
2021/09/05 04:50:24;;;;;;;;;15.25;15.25;;;;;24.29;54.07;101168.88;5061540;27;45910;-45
2021/09/05 04:52:49;;;;;;;;;15.75;15.75;;;;;24.30;53.78;101167.06;5079500;27;45529;-44
2021/09/05 04:55:15;;;;;;;;;15.50;15.25;;;;;24.29;53.64;101168.88;5079760;28;45299;-45
2021/09/05 04:57:40;;;;;;;;;17.25;15.00;;;;;24.27;54.09;101170.78;5079523;28;45331;-47
2021/09/05 05:00:07;;;;;;;;;16.75;13.50;;;;;24.28;54.24;101172.50;5079724;27;45268;-44
2021/09/05 05:02:32;;;;;;;;;16.00;14.50;;;;;24.28;54.04;101172.50;5079337;27;45495;-47
2021/09/05 05:04:57;;;;;;;;;16.75;15.00;;;;;24.28;53.91;101180.44;5079000;28;55399;-47
2021/09/05 05:07:23;;;;;;;;;15.75;15.00;;;;;24.28;54.00;101172.50;5079540;27;45270;-46
2021/09/05 05:09:50;;;;;;;;;18.75;18.00;;;;;24.26;53.89;101179.69;5079579;27;45584;-45
2021/09/05 05:12:16;;;;;;;;;17.00;14.25;;;;;24.26;54.31;101184.97;5079267;27;45429;-47
2021/09/05 05:14:41;;;;;;;;;16.50;14.50;;;;;24.23;54.08;101187.81;5079159;28;45394;-50
2021/09/05 05:17:07;;;;;;;;;17.50;16.50;;;;;24.20;54.43;101190.66;5079301;27;45853;-51
2021/09/05 05:19:32;;;;;;;;;14.50;14.50;;;;;24.19;54.05;101194.28;5079237;27;45385;-55
2021/09/05 05:21:57;;;;;;;;;17.00;15.50;;;;;24.16;54.42;101202.44;5079171;28;45431;-52
2021/09/05 05:24:23;;;;;;;;;16.75;16.75;;;;;24.14;54.26;101202.53;5078971;27;45444;-53
2021/09/05 05:26:48;;;;;;;;;16.00;16.00;;;;;24.06;53.97;101194.22;5079447;28;45290;-51
2021/09/05 05:29:13;;;;;;;;;21.00;17.50;;;;;24.12;54.37;101209.72;5079292;27;45248;-47
2021/09/05 05:31:39;;;;;;;;;20.50;18.25;;;;;24.11;54.44;101201.84;5078985;27;45333;-48
2021/09/05 05:34:04;;;;;;;;;18.50;18.50;;;;;24.10;54.13;101208.97;5078539;27;51139;-48
2021/09/05 05:36:29;;;;;;;;;19.75;18.25;;;;;24.06;54.63;101205.69;5079254;28;45288;-46
2021/09/05 05:38:55;;;;;;;;;17.25;17.25;;;;;24.01;54.74;101210.41;5060970;28;45239;-44
2021/09/05 05:41:20;;;;;;;;;18.50;18.50;;;;;23.92;54.58;101203.84;5078666;28;46530;-44
2021/09/05 05:43:46;;;;;;;;;16.25;15.25;;;;;23.86;54.90;101211.38;5079245;28;45306;-45
2021/09/05 05:46:11;;;;;;;;;16.75;15.25;;;;;23.82;54.61;101212.50;5078882;28;45339;-44
2021/09/05 05:48:37;;;;;;;;;18.75;17.25;;;;;23.77;55.21;101220.72;5078918;28;45505;-55
2021/09/05 05:51:02;;;;;;;;;21.00;19.00;;;;;23.74;55.09;101221.78;5078699;28;46079;-54
2021/09/05 05:53:28;;;;;;;;;18.25;17.25;;;;;23.69;55.64;101215.91;5078520;28;45361;-55
2021/09/05 05:55:53;;;;;;;;;20.00;20.00;;;;;23.67;55.39;101219.63;5078683;28;45263;-50
2021/09/05 05:58:18;;;;;;;;;21.00;19.00;;;;;23.63;55.73;101219.81;5078825;28;45495;-50
2021/09/05 06:00:44;;;;;;;;;20.00;17.25;;;;;23.58;55.25;101218.38;5078334;28;45358;-47
2021/09/05 06:03:09;;;;;;;;;18.50;16.50;;;;;23.57;55.57;101214.03;5078480;28;45335;-44
2021/09/05 06:05:35;;;;;;;;;16.00;16.00;;;;;23.58;55.97;101215.75;5078711;27;45775;-47
2021/09/05 06:08:02;;;;;;;;;21.00;19.25;;;;;23.54;55.71;101227.44;5078609;28;45355;-45
2021/09/05 06:10:28;;;;;;;;;19.25;18.25;;;;;23.50;55.97;101228.59;5060088;28;46324;-45
2021/09/05 06:12:53;;;;;;;;;21.00;19.25;;;;;23.46;56.26;101236.72;5078177;27;45748;-46
2021/09/05 06:15:19;;;;;;;;;19.50;19.50;;;;;23.45;55.82;101232.38;5078770;28;45241;-49
2021/09/05 06:17:44;;;;;;;;;20.75;18.00;;;;;23.43;55.94;101231.63;5078544;28;45367;-46
2021/09/05 06:20:10;;;;;;;;;20.50;19.25;;;;;23.45;56.64;101247.41;5078158;27;45402;-44
2021/09/05 06:22:36;;;;;;;;;19.50;19.50;;;;;23.42;56.30;101248.47;5078382;28;45202;-46
2021/09/05 06:25:01;;;;;;;;;22.50;19.00;;;;;23.41;55.95;101246.75;5078213;28;45801;-47
2021/09/05 06:27:26;;;;;;;;;24.75;18.50;;;;;23.39;55.96;101242.47;5078387;28;45520;-45
2021/09/05 06:29:52;;;;;;;;;25.75;19.25;;;;;23.39;56.09;101248.63;5078001;28;45215;-49
2021/09/05 06:32:17;;;;;;;;;20.25;19.75;;;;;23.40;56.39;101254.75;5078104;28;45238;-50
2021/09/05 06:34:42;;;;;;;;;17.50;17.50;;;;;23.42;56.42;101260.81;5078171;27;45287;-47
2021/09/05 06:37:08;;;;;;;;;20.75;18.25;;;;;23.37;56.30;101261.09;5078131;27;45527;-48
2021/09/05 06:39:33;;;;;;;;;21.50;18.75;;;;;23.37;56.45;101263.75;5077771;27;45522;-48
2021/09/05 06:41:59;;;;;;;;;19.50;18.00;;;;;23.39;56.24;101263.63;5077750;28;45425;-48
2021/09/05 06:44:25;;;;;;;;;19.00;18.25;;;;;23.45;56.29;101274.69;5077836;28;45347;-45
2021/09/05 06:46:50;;;;;;;;;20.25;18.50;;;;;23.50;56.37;101276.22;5078236;27;45388;-46
2021/09/05 06:49:16;;;;;;;;;17.00;15.75;;;;;23.55;56.00;101275.00;5059311;28;47496;-45
2021/09/05 06:51:41;;;;;;;;;22.75;21.00;;;;;23.61;55.77;101273.78;5077612;28;45333;-54
2021/09/05 06:54:06;;;;;;;;;19.50;17.75;;;;;23.63;56.28;101278.00;5077769;28;45328;-47
2021/09/05 06:56:32;;;;;;;;;16.25;13.25;;;;;23.68;55.82;101285.66;5077844;27;45446;-48
2021/09/05 06:58:57;;;;;;;;;19.50;17.00;;;;;23.72;55.78;101289.84;5077134;28;45316;-46
2021/09/05 07:01:22;;;;;;;;;18.75;18.75;;;;;23.75;55.74;101292.31;5077518;28;53513;-49
2021/09/05 07:03:48;;;;;;;;;20.50;18.50;;;;;23.78;55.43;101296.53;5077413;27;45448;-49
2021/09/05 07:06:13;;;;;;;;;23.75;18.75;;;;;23.80;55.49;101289.38;5077668;27;45754;-50
2021/09/05 07:08:38;;;;;;;;;17.75;17.00;;;;;23.85;55.71;101299.66;5077249;28;46455;-51
2021/09/05 07:11:03;;;;;;;;;16.00;16.00;;;;;23.86;55.27;101293.44;5076488;28;45830;-50
2021/09/05 07:13:29;;;;;;;;;17.50;16.25;;;;;23.89;55.08;101301.16;5077421;28;45264;-49
2021/09/05 07:15:54;;;;;;;;;16.25;14.75;;;;;23.90;54.91;101294.91;5077676;27;45575;-44
2021/09/05 07:18:23;;;;;;;;;20.00;17.00;;;;;23.91;55.02;101296.63;5077286;28;46328;-51
2021/09/05 07:20:49;;;;;;;;;14.50;14.50;;;;;23.96;54.72;101304.31;5077134;28;45239;-53
2021/09/05 07:23:14;;;;;;;;;17.00;16.25;;;;;23.98;55.09;101305.91;5077399;28;45414;-51
2021/09/05 07:25:39;;;;;;;;;18.00;17.00;;;;;23.99;55.44;101298.81;5077515;28;45296;-53
2021/09/05 07:28:04;;;;;;;;;17.00;15.00;;;;;24.01;55.08;101302.22;5076966;28;46046;-45
2021/09/05 07:30:30;;;;;;;;;19.75;16.25;;;;;24.00;54.83;101301.38;5076846;28;45255;-49
2021/09/05 07:32:55;;;;;;;;;19.25;17.00;;;;;24.02;55.20;101310.06;5076990;27;45466;-46
2021/09/05 07:35:20;;;;;;;;;17.00;16.25;;;;;24.04;54.91;101310.81;5077581;28;45292;-49
2021/09/05 07:37:47;;;;;;;;;20.75;15.50;;;;;24.06;54.75;101310.72;5076829;27;45277;-46
2021/09/05 07:40:14;;;;;;;;;16.25;15.75;;;;;24.05;54.90;101309.88;5076888;28;45855;-54
2021/09/05 07:42:40;;;;;;;;;18.50;18.25;;;;;24.05;55.00;101309.88;5077012;27;45286;-48
2021/09/05 07:45:06;;;;;;;;;21.50;19.00;;;;;24.06;54.45;101305.44;5077120;28;45620;-52
2021/09/05 07:47:31;;;;;;;;;18.50;17.00;;;;;24.08;54.96;101319.44;5076532;28;46345;-45
2021/09/05 07:49:57;;;;;;;;;21.75;20.00;;;;;24.07;55.00;101315.06;5076631;28;47718;-47
2021/09/05 07:52:22;;;;;;;;;18.00;15.75;;;;;24.08;54.83;101327.38;5077124;28;45335;-52
2021/09/05 07:54:48;;;;;;;;;15.00;14.25;;;;;24.09;54.38;101327.25;5077052;28;45629;-45
2021/09/05 07:57:13;;;;;;;;;15.75;15.75;;;;;24.09;54.72;101332.56;5076543;27;46435;-50
2021/09/05 07:59:38;;;;;;;;;18.00;16.25;;;;;24.12;54.64;101325.38;5076573;28;45243;-47
2021/09/05 08:02:04;;;;;;;;;17.25;17.25;;;;;24.09;54.88;101327.25;5076621;27;45407;-44
2021/09/05 08:04:29;;;;;;;;;19.75;17.00;;;;;24.13;54.82;101333.25;5076878;28;45343;-47
2021/09/05 08:06:54;;;;;;;;;18.00;17.75;;;;;24.14;54.69;101334.06;5076593;28;48280;-48
2021/09/05 08:09:20;;;;;;;;;18.50;16.00;;;;;24.15;54.27;101338.44;5076417;28;45374;-52
2021/09/05 08:11:45;;;;;;;;;16.25;15.00;;;;;24.15;54.40;101341.91;5076627;28;45470;-47
2021/09/05 08:14:10;;;;;;;;;18.25;18.25;;;;;24.16;54.57;101342.78;5076544;27;45330;-48
2021/09/05 08:16:38;;;;;;;;;19.00;17.25;;;;;24.19;54.45;101346.09;5076344;28;45466;-51
2021/09/05 08:19:03;;;;;;;;;19.75;17.00;;;;;24.20;54.70;101344.28;5076383;27;45376;-50
2021/09/05 08:21:29;;;;;;;;;16.50;16.00;;;;;24.22;54.12;101352.97;5077138;28;45314;-46
2021/09/05 08:23:54;;;;;;;;;13.00;13.00;;;;;24.24;54.08;101353.72;5062439;28;45486;-47
2021/09/05 08:26:20;;;;;;;;;14.50;14.50;;;;;24.25;54.44;101347.50;5079883;27;46625;-46
2021/09/05 08:28:46;;;;;;;;;16.50;16.25;;;;;24.26;53.92;101358.94;5079843;27;45868;-52
2021/09/05 08:31:11;;;;;;;;;18.25;16.50;;;;;24.27;54.45;101358.84;5080027;27;45323;-47
2021/09/05 08:33:36;;;;;;;;;18.25;14.75;;;;;24.26;53.87;101358.94;5080085;28;45323;-49
2021/09/05 08:36:03;;;;;;;;;17.00;17.00;;;;;24.31;53.94;101356.84;5079776;28;45351;-47
2021/09/05 08:38:29;;;;;;;;;17.25;16.75;;;;;24.31;53.77;101360.34;5079886;28;45393;-51
2021/09/05 08:40:55;;;;;;;;;18.25;16.50;;;;;24.32;54.21;101356.75;5080214;27;45416;-47
2021/09/05 08:43:20;;;;;;;;;16.75;15.50;;;;;24.34;53.63;101356.66;5079896;28;45680;-44
2021/09/05 08:45:48;;;;;;;;;16.50;15.25;;;;;24.35;53.77;101359.19;5079744;27;46139;-44
2021/09/05 08:48:15;;;;;;;;;14.50;14.50;;;;;24.35;54.01;101353.06;5061480;28;45441;-44
2021/09/05 08:50:42;;;;;;;;;12.50;12.50;;;;;24.38;54.20;101363.44;5079762;28;45240;-44
2021/09/05 08:53:09;;;;;;;;;15.00;15.00;;;;;24.39;53.60;101355.44;5079747;27;45232;-45
2021/09/05 08:55:35;;;;;;;;;17.25;14.25;;;;;24.38;53.86;101352.84;5079638;28;45578;-44
2021/09/05 08:58:00;;;;;;;;;16.50;15.75;;;;;24.41;53.62;101352.66;5079474;28;45457;-44
2021/09/05 09:00:26;;;;;;;;;18.25;16.75;;;;;24.42;53.62;101364.13;5079428;27;45494;-44
2021/09/05 09:02:56;;;;;;;;;14.50;14.50;;;;;24.43;53.90;101366.66;5079758;28;45506;-45
2021/09/05 09:05:42;;;;;;;;;18.25;15.75;;;;;24.44;53.87;101363.06;5079162;27;47084;-48
2021/09/05 09:08:12;;;;;;;;;14.75;13.75;;;;;24.45;53.76;101366.56;5079205;27;45712;-49
2021/09/05 09:10:58;;;;;;;;;15.25;15.25;;;;;24.46;53.85;101370.91;5061317;28;45332;-50
2021/09/05 09:13:27;;;;;;;;;14.00;14.00;;;;;24.46;53.86;101369.13;5079247;28;45319;-45
2021/09/05 09:15:55;;;;;;;;;13.75;12.50;;;;;24.47;53.54;101369.97;5079239;27;45405;-45
2021/09/05 09:18:29;;;;;;;;;14.50;14.50;;;;;24.47;53.87;101369.97;5079059;27;45430;-48
2021/09/05 09:20:57;;;;;;;;;14.25;14.25;;;;;24.48;53.36;101374.31;5079304;28;45446;-45
2021/09/05 09:23:25;;;;;;;;;14.75;14.25;;;;;24.47;53.29;101368.19;5079297;27;45660;-49
2021/09/05 09:25:52;;;;;;;;;14.00;14.00;;;;;24.49;53.21;101370.72;5079089;28;46706;-48
2021/09/05 09:28:27;;;;;;;;;15.50;15.50;;;;;24.49;53.22;101376.03;5078920;28;45690;-45
2021/09/05 09:30:53;;;;;;;;;16.75;15.00;;;;;24.49;53.52;101371.56;5079086;28;45274;-45
2021/09/05 09:33:21;;;;;;;;;13.75;13.75;;;;;24.50;53.70;101367.13;5078487;28;45535;-44
2021/09/05 09:35:50;;;;;;;;;17.00;16.75;;;;;24.48;53.39;101366.38;5078787;27;46712;-44
2021/09/05 09:38:16;;;;;;;;;15.75;15.50;;;;;24.52;53.04;101370.53;5078920;27;45808;-56
2021/09/05 09:40:42;;;;;;;;;13.75;13.25;;;;;24.52;53.19;101370.53;5078938;28;45304;-52
2021/09/05 09:43:22;;;;;;;;;16.00;15.25;;;;;24.53;53.33;101367.78;5079250;27;45532;-51
2021/09/05 09:45:49;;;;;;;;;14.00;14.00;;;;;24.54;53.00;101373.91;5060507;28;47370;-45
2021/09/05 09:48:26;;;;;;;;;14.75;14.75;;;;;24.55;53.59;101371.19;5060502;27;45363;-52
2021/09/05 09:50:59;;;;;;;;;15.75;14.00;;;;;24.55;53.04;101375.63;5078783;28;45208;-52
2021/09/05 09:53:26;;;;;;;;;14.50;14.50;;;;;24.57;53.15;101367.59;5078594;28;45493;-51
2021/09/05 09:55:52;;;;;;;;;13.00;12.00;;;;;24.56;53.23;101372.03;5078728;28;46588;-55
2021/09/05 09:58:17;;;;;;;;;15.25;13.50;;;;;24.57;53.66;101372.91;5078539;28;45346;-50
2021/09/05 10:00:43;;;;;;;;;15.75;15.75;;;;;24.57;53.01;101379.03;5078424;27;45390;-49
2021/09/05 10:03:11;;;;;;;;;15.25;14.00;;;;;24.59;53.45;101374.47;5078723;28;45574;-56
2021/09/05 10:05:38;;;;;;;;;14.25;12.75;;;;;24.58;52.93;101364.84;5078203;28;46721;-53
2021/09/05 10:08:05;;;;;;;;;14.50;14.50;;;;;24.59;53.35;101371.84;5078421;28;45466;-49
2021/09/05 10:10:31;;;;;;;;;14.25;13.75;;;;;24.59;52.73;101370.97;5078819;28;45390;-56
2021/09/05 10:12:59;;;;;;;;;17.50;15.25;;;;;24.60;53.02;101365.59;5078559;28;45489;-54
2021/09/05 10:15:24;;;;;;;;;20.50;16.25;;;;;24.60;53.49;101370.88;5078059;28;45531;-47
2021/09/05 10:17:50;;;;;;;;;18.00;14.25;;;;;24.60;52.68;101368.25;5078450;27;45487;-45
2021/09/05 10:20:17;;;;;;;;;15.00;15.00;;;;;24.62;53.33;101362.81;5078578;28;45421;-47
2021/09/05 10:22:43;;;;;;;;;15.00;14.00;;;;;24.63;53.37;101367.19;5078514;28;45534;-47
2021/09/05 10:25:08;;;;;;;;;14.00;14.00;;;;;24.63;52.61;101367.19;5078144;28;45990;-50
2021/09/05 10:27:48;;;;;;;;;18.25;16.25;;;;;24.64;53.23;101366.25;5078160;28;45738;-46
2021/09/05 10:30:16;;;;;;;;;16.25;13.50;;;;;24.64;52.97;101364.41;5078468;28;45341;-53
2021/09/05 10:32:44;;;;;;;;;13.00;13.00;;;;;24.63;52.72;101368.06;5078234;28;45287;-48
2021/09/05 10:35:33;;;;;;;;;14.25;14.25;;;;;24.65;52.72;101362.63;5077859;28;46309;-48
2021/09/05 10:38:08;;;;;;;;;13.50;13.50;;;;;24.65;52.92;101366.13;5078196;28;45465;-47
2021/09/05 10:40:53;;;;;;;;;14.50;14.50;;;;;24.65;53.28;101366.13;5078396;28;45341;-49
2021/09/05 10:43:20;;;;;;;;;14.00;13.25;;;;;24.66;52.78;101357.22;5078230;28;45609;-56
2021/09/05 10:45:49;;;;;;;;;15.00;14.25;;;;;24.66;53.18;101356.38;5077729;27;45477;-46
2021/09/05 10:48:37;;;;;;;;;14.75;14.75;;;;;24.66;53.22;101357.22;5077826;28;45845;-49
2021/09/05 10:51:10;;;;;;;;;12.50;12.50;;;;;24.67;52.76;101353.63;5078002;28;45367;-46
2021/09/05 10:53:56;;;;;;;;;13.50;13.25;;;;;24.68;53.07;101354.50;5077787;28;45227;-45
2021/09/05 10:56:23;;;;;;;;;14.50;13.75;;;;;24.69;53.08;101359.72;5077556;27;46214;-45
2021/09/05 10:58:51;;;;;;;;;14.75;14.50;;;;;24.69;53.11;101350.94;5077111;28;45348;-50
2021/09/05 11:01:31;;;;;;;;;15.25;14.50;;;;;24.69;52.51;101357.06;5077774;28;45344;-50
2021/09/05 11:04:17;;;;;;;;;15.00;13.00;;;;;24.70;52.92;101352.59;5077802;28;45636;-53
2021/09/05 11:06:53;;;;;;;;;15.50;13.75;;;;;24.71;52.56;101349.00;5077588;27;46585;-50